createdAt,value
2022-08-22T00:00:13.924Z,0.00
2022-08-22T00:01:13.930Z,0.00
2022-08-22T00:02:13.979Z,0.00
2022-08-22T00:02:42.591Z,0.00
2022-08-22T00:02:56.260Z,4.00
2022-08-22T00:03:02.492Z,40.00
2022-08-22T00:03:04.030Z,0.00
2022-08-22T00:03:06.691Z,0.00
2022-08-22T00:03:18.405Z,0.00
2022-08-22T00:04:14.871Z,0.00
2022-08-22T00:05:13.860Z,0.00
2022-08-22T00:06:13.880Z,0.00
2022-08-22T00:07:13.847Z,0.00
2022-08-22T00:08:13.850Z,0.00
2022-08-22T00:09:13.782Z,0.00
2022-08-22T00:10:22.788Z,0.00
2022-08-22T00:11:14.812Z,0.00
2022-08-22T00:12:13.840Z,0.00
2022-08-22T00:13:13.770Z,0.00
2022-08-22T00:14:13.765Z,0.00
2022-08-22T00:15:42.464Z,0.00
2022-08-22T00:16:14.762Z,0.00
2022-08-22T00:17:13.750Z,0.00
2022-08-22T00:18:13.721Z,0.00
2022-08-22T00:19:13.768Z,0.00
2022-08-22T00:20:13.694Z,0.00
2022-08-22T00:21:13.693Z,0.00
2022-08-22T00:22:13.670Z,0.00
2022-08-22T00:23:13.654Z,0.00
2022-08-22T00:24:13.691Z,0.00
2022-08-22T00:25:24.783Z,0.00
2022-08-22T00:26:14.697Z,0.00
2022-08-22T00:27:13.621Z,0.00
2022-08-22T00:28:13.631Z,0.00
2022-08-22T00:29:13.579Z,0.00
2022-08-22T00:30:13.561Z,0.00
2022-08-22T00:31:13.577Z,0.00
2022-08-22T00:32:13.559Z,0.00
2022-08-22T00:33:13.552Z,0.00
2022-08-22T00:34:13.519Z,0.00
2022-08-22T00:35:13.531Z,0.00
2022-08-22T00:36:13.533Z,0.00
2022-08-22T00:37:13.532Z,0.00
2022-08-22T00:38:13.503Z,0.00
2022-08-22T00:39:13.502Z,0.00
2022-08-22T00:40:13.563Z,0.00
2022-08-22T00:41:13.562Z,0.00
2022-08-22T00:42:13.474Z,0.00
2022-08-22T00:43:13.470Z,0.00
2022-08-22T00:44:13.443Z,0.00
2022-08-22T00:45:13.425Z,0.00
2022-08-22T00:46:13.445Z,0.00
2022-08-22T00:47:13.412Z,0.00
2022-08-22T00:48:14.581Z,0.00
2022-08-22T00:49:13.372Z,0.00
2022-08-22T00:50:13.382Z,0.00
2022-08-22T00:51:13.373Z,0.00
2022-08-22T00:52:13.351Z,0.00
2022-08-22T00:53:13.343Z,0.00
2022-08-22T00:54:17.576Z,0.00
2022-08-22T00:55:13.369Z,0.00
2022-08-22T00:56:13.380Z,0.00
2022-08-22T00:57:13.282Z,0.00
2022-08-22T00:58:13.369Z,0.00
2022-08-22T00:59:22.882Z,0.00
2022-08-22T01:00:14.262Z,0.00
2022-08-22T01:01:13.360Z,0.00
2022-08-22T01:02:13.297Z,0.00
2022-08-22T01:03:13.223Z,0.00
2022-08-22T01:04:13.226Z,0.00
2022-08-22T01:05:13.243Z,0.00
2022-08-22T01:06:13.225Z,0.00
2022-08-22T01:07:13.194Z,0.00
2022-08-22T01:08:13.173Z,0.00
2022-08-22T01:09:13.173Z,0.00
2022-08-22T01:10:13.172Z,0.00
2022-08-22T01:11:13.152Z,0.00
2022-08-22T01:12:13.162Z,0.00
2022-08-22T01:13:13.131Z,0.00
2022-08-22T01:14:13.142Z,0.00
2022-08-22T01:15:13.093Z,0.00
2022-08-22T01:16:13.106Z,0.00
2022-08-22T01:17:13.076Z,0.00
2022-08-22T01:18:13.083Z,0.00
2022-08-22T01:19:13.013Z,0.00
2022-08-22T01:20:13.023Z,0.00
2022-08-22T01:21:13.055Z,0.00
2022-08-22T01:22:13.033Z,0.00
2022-08-22T01:23:12.995Z,0.00
2022-08-22T01:24:12.984Z,0.00
2022-08-22T01:25:12.963Z,0.00
2022-08-22T01:26:12.954Z,0.00
2022-08-22T01:27:12.941Z,0.00
2022-08-22T01:28:12.962Z,0.00
2022-08-22T01:29:12.954Z,0.00
2022-08-22T01:30:12.924Z,0.00
2022-08-22T01:31:12.903Z,0.00
2022-08-22T01:32:12.908Z,0.00
2022-08-22T01:33:12.921Z,0.00
2022-08-22T01:34:13.237Z,0.00
2022-08-22T01:35:12.903Z,0.00
2022-08-22T01:36:12.874Z,0.00
2022-08-22T01:37:12.851Z,0.00
2022-08-22T01:38:12.861Z,0.00
2022-08-22T01:39:12.817Z,0.00
2022-08-22T01:40:12.989Z,0.00
2022-08-22T01:41:12.814Z,0.00
2022-08-22T01:42:12.814Z,0.00
2022-08-22T01:43:12.757Z,0.00
2022-08-22T01:44:12.744Z,0.00
2022-08-22T01:45:12.724Z,0.00
2022-08-22T01:46:12.745Z,0.00
2022-08-22T01:47:13.755Z,0.00
2022-08-22T01:48:12.890Z,0.00
2022-08-22T01:49:12.750Z,0.00
2022-08-22T01:50:12.739Z,0.00
2022-08-22T01:51:12.707Z,0.00
2022-08-22T01:52:12.732Z,0.00
2022-08-22T01:53:12.735Z,0.00
2022-08-22T01:54:12.675Z,0.00
2022-08-22T01:55:12.664Z,0.00
2022-08-22T01:56:12.641Z,0.00
2022-08-22T01:57:12.651Z,0.00
2022-08-22T01:58:12.594Z,0.00
2022-08-22T01:59:12.605Z,0.00
2022-08-22T02:00:12.578Z,0.00
2022-08-22T02:01:12.700Z,0.00
2022-08-22T02:02:12.625Z,0.00
2022-08-22T02:03:12.587Z,0.00
2022-08-22T02:04:12.604Z,0.00
2022-08-22T02:05:12.535Z,0.00
2022-08-22T02:06:14.503Z,0.00
2022-08-22T02:07:12.515Z,0.00
2022-08-22T02:08:12.535Z,0.00
2022-08-22T02:09:12.522Z,0.00
2022-08-22T02:10:12.575Z,0.00
2022-08-22T02:11:12.513Z,0.00
2022-08-22T02:12:21.357Z,0.00
2022-08-22T02:13:13.479Z,0.00
2022-08-22T02:14:12.476Z,0.00
2022-08-22T02:15:12.446Z,0.00
2022-08-22T02:16:12.435Z,0.00
2022-08-22T02:17:12.454Z,0.00
2022-08-22T02:18:12.434Z,0.00
2022-08-22T02:19:12.405Z,0.00
2022-08-22T02:20:12.404Z,0.00
2022-08-22T02:21:12.398Z,0.00
2022-08-22T02:22:12.434Z,0.00
2022-08-22T02:23:12.385Z,0.00
2022-08-22T02:24:12.386Z,0.00
2022-08-22T02:25:12.365Z,0.00
2022-08-22T02:26:12.338Z,0.00
2022-08-22T02:27:12.315Z,0.00
2022-08-22T02:28:12.346Z,0.00
2022-08-22T02:29:12.305Z,0.00
2022-08-22T02:30:12.296Z,0.00
2022-08-22T02:31:16.532Z,0.00
2022-08-22T02:32:12.276Z,0.00
2022-08-22T02:33:12.305Z,0.00
2022-08-22T02:34:12.256Z,0.00
2022-08-22T02:35:12.236Z,0.00
2022-08-22T02:36:12.216Z,0.00
2022-08-22T02:37:12.203Z,0.00
2022-08-22T02:38:12.236Z,0.00
2022-08-22T02:39:12.186Z,0.00
2022-08-22T02:40:12.255Z,0.00
2022-08-22T02:41:12.166Z,0.00
2022-08-22T02:42:12.158Z,0.00
2022-08-22T02:43:12.159Z,0.00
2022-08-22T02:44:12.126Z,0.00
2022-08-22T02:45:12.137Z,0.00
2022-08-22T02:46:12.125Z,0.00
2022-08-22T02:47:12.137Z,0.00
2022-08-22T02:48:12.131Z,0.00
2022-08-22T02:49:12.133Z,0.00
2022-08-22T02:50:12.821Z,0.00
2022-08-22T02:51:12.079Z,0.00
2022-08-22T02:52:12.060Z,0.00
2022-08-22T02:53:12.070Z,0.00
2022-08-22T02:54:12.030Z,0.00
2022-08-22T02:55:12.027Z,0.00
2022-08-22T02:56:12.046Z,0.00
2022-08-22T02:57:14.416Z,0.00
2022-08-22T02:58:12.048Z,0.00
2022-08-22T02:59:11.976Z,0.00
2022-08-22T03:00:31.240Z,0.00
2022-08-22T03:01:13.006Z,0.00
2022-08-22T03:02:11.989Z,0.00
2022-08-22T03:03:11.947Z,0.00
2022-08-22T03:04:11.938Z,0.00
2022-08-22T03:05:11.936Z,0.00
2022-08-22T03:06:11.928Z,0.00
2022-08-22T03:07:11.915Z,0.00
2022-08-22T03:08:12.874Z,0.00
2022-08-22T03:09:11.886Z,0.00
2022-08-22T03:10:11.848Z,0.00
2022-08-22T03:11:11.828Z,0.00
2022-08-22T03:12:11.817Z,0.00
2022-08-22T03:13:11.857Z,0.00
2022-08-22T03:14:11.807Z,0.00
2022-08-22T03:15:11.777Z,0.00
2022-08-22T03:16:11.772Z,0.00
2022-08-22T03:17:11.758Z,0.00
2022-08-22T03:18:11.818Z,0.00
2022-08-22T03:19:13.192Z,0.00
2022-08-22T03:20:12.760Z,0.00
2022-08-22T03:21:11.722Z,0.00
2022-08-22T03:22:11.736Z,0.00
2022-08-22T03:23:11.707Z,0.00
2022-08-22T03:24:11.790Z,0.00
2022-08-22T03:25:11.727Z,0.00
2022-08-22T03:26:11.688Z,0.00
2022-08-22T03:27:11.707Z,0.00
2022-08-22T03:28:11.686Z,0.00
2022-08-22T03:29:11.669Z,0.00
2022-08-22T03:30:11.679Z,0.00
2022-08-22T03:31:11.661Z,0.00
2022-08-22T03:32:11.637Z,0.00
2022-08-22T03:33:11.608Z,0.00
2022-08-22T03:34:11.608Z,0.00
2022-08-22T03:35:11.590Z,0.00
2022-08-22T03:36:11.579Z,0.00
2022-08-22T03:37:11.586Z,0.00
2022-08-22T03:38:11.568Z,0.00
2022-08-22T03:39:16.582Z,0.00
2022-08-22T03:40:12.592Z,0.00
2022-08-22T03:41:11.538Z,0.00
2022-08-22T03:42:11.557Z,0.00
2022-08-22T03:43:11.502Z,0.00
2022-08-22T03:44:11.472Z,0.00
2022-08-22T03:45:11.487Z,0.00
2022-08-22T03:46:11.499Z,0.00
2022-08-22T03:47:11.497Z,0.00
2022-08-22T03:48:11.488Z,0.00
2022-08-22T03:49:11.487Z,0.00
2022-08-22T03:50:11.455Z,0.00
2022-08-22T03:51:11.428Z,0.00
2022-08-22T03:52:11.481Z,0.00
2022-08-22T03:53:18.718Z,0.00
2022-08-22T03:54:12.412Z,4.00
2022-08-22T03:55:11.378Z,4.00
2022-08-22T03:56:11.356Z,4.00
2022-08-22T03:57:11.379Z,4.00
2022-08-22T03:58:19.144Z,4.00
2022-08-22T03:59:12.385Z,4.00
2022-08-22T04:00:11.371Z,4.00
2022-08-22T04:01:11.350Z,8.00
2022-08-22T04:02:33.420Z,8.00
2022-08-22T04:03:12.339Z,8.00
2022-08-22T04:04:11.276Z,12.00
2022-08-22T04:05:11.279Z,12.00
2022-08-22T04:06:11.563Z,12.00
2022-08-22T04:07:15.809Z,16.00
2022-08-22T04:08:12.963Z,20.00
2022-08-22T04:09:11.228Z,20.00
2022-08-22T04:10:11.199Z,24.00
2022-08-22T04:11:11.199Z,28.00
2022-08-22T04:12:11.188Z,32.00
2022-08-22T04:13:11.217Z,40.00
2022-08-22T04:14:11.178Z,48.00
2022-08-22T04:15:11.229Z,52.00
2022-08-22T04:16:11.157Z,60.00
2022-08-22T04:17:11.159Z,68.00
2022-08-22T04:18:11.126Z,80.00
2022-08-22T04:19:11.098Z,88.00
2022-08-22T04:20:11.078Z,96.00
2022-08-22T04:21:11.098Z,108.00
2022-08-22T04:22:11.128Z,124.00
2022-08-22T04:23:11.103Z,136.00
2022-08-22T04:24:11.068Z,152.00
2022-08-22T04:25:11.061Z,168.00
2022-08-22T04:26:12.478Z,180.00
2022-08-22T04:27:11.055Z,200.00
2022-08-22T04:28:11.019Z,212.00
2022-08-22T04:29:11.039Z,232.00
2022-08-22T04:30:11.001Z,252.00
2022-08-22T04:31:11.038Z,272.00
2022-08-22T04:32:14.542Z,292.00
2022-08-22T04:33:11.002Z,312.00
2022-08-22T04:34:10.964Z,332.00
2022-08-22T04:35:10.918Z,356.00
2022-08-22T04:36:10.939Z,376.00
2022-08-22T04:37:10.948Z,396.00
2022-08-22T04:38:10.919Z,420.00
2022-08-22T04:39:10.918Z,436.00
2022-08-22T04:40:10.926Z,460.00
2022-08-22T04:41:10.920Z,488.00
2022-08-22T04:42:31.225Z,508.00
2022-08-22T04:43:11.900Z,536.00
2022-08-22T04:44:10.849Z,560.00
2022-08-22T04:45:10.870Z,584.00
2022-08-22T04:46:10.858Z,612.00
2022-08-22T04:47:10.831Z,636.00
2022-08-22T04:48:10.821Z,660.00
2022-08-22T04:49:10.809Z,684.00
2022-08-22T04:50:10.837Z,708.00
2022-08-22T04:51:10.801Z,728.00
2022-08-22T04:52:10.760Z,752.00
2022-08-22T04:53:10.777Z,776.00
2022-08-22T04:54:10.770Z,800.00
2022-08-22T04:55:10.761Z,828.00
2022-08-22T04:56:10.732Z,856.00
2022-08-22T04:57:10.747Z,892.00
2022-08-22T04:58:10.679Z,924.00
2022-08-22T04:59:10.711Z,956.00
2022-08-22T05:00:10.670Z,988.00
2022-08-22T05:01:10.658Z,1024.00
2022-08-22T05:02:10.705Z,1064.00
2022-08-22T05:03:10.672Z,1108.00
2022-08-22T05:04:10.694Z,1156.00
2022-08-22T05:05:13.248Z,1200.00
2022-08-22T05:06:10.608Z,1244.00
2022-08-22T05:07:10.614Z,1284.00
2022-08-22T05:08:11.556Z,1324.00
2022-08-22T05:09:15.516Z,1360.00
2022-08-22T05:10:12.255Z,1388.00
2022-08-22T05:11:10.588Z,1380.00
2022-08-22T05:12:10.592Z,1392.00
2022-08-22T05:13:10.554Z,1396.00
2022-08-22T05:14:10.551Z,1420.00
2022-08-22T05:15:10.529Z,1472.00
2022-08-22T05:16:10.571Z,1532.00
2022-08-22T05:17:10.522Z,1604.00
2022-08-22T05:18:10.508Z,1676.00
2022-08-22T05:19:14.426Z,1756.00
2022-08-22T05:20:11.448Z,1836.00
2022-08-22T05:21:11.170Z,1940.00
2022-08-22T05:22:10.418Z,2060.00
2022-08-22T05:23:17.258Z,2208.00
2022-08-22T05:24:11.471Z,2348.00
2022-08-22T05:25:12.126Z,2508.00
2022-08-22T05:26:10.400Z,2660.00
2022-08-22T05:27:10.369Z,2788.00
2022-08-22T05:28:10.358Z,2920.00
2022-08-22T05:29:10.378Z,3012.00
2022-08-22T05:30:10.390Z,3080.00
2022-08-22T05:31:10.452Z,3176.00
2022-08-22T05:32:10.357Z,3300.00
2022-08-22T05:33:10.380Z,3380.00
2022-08-22T05:34:10.289Z,3504.00
2022-08-22T05:35:10.268Z,3520.00
2022-08-22T05:36:10.268Z,3700.00
2022-08-22T05:37:10.267Z,3596.00
2022-08-22T05:38:10.283Z,3612.00
2022-08-22T05:39:10.331Z,3608.00
2022-08-22T05:40:10.321Z,3560.00
2022-08-22T05:41:10.276Z,3540.00
2022-08-22T05:42:10.277Z,3560.00
2022-08-22T05:43:10.224Z,3804.00
2022-08-22T05:44:10.229Z,4356.00
2022-08-22T05:45:12.120Z,4016.00
2022-08-22T05:46:10.209Z,4660.00
2022-08-22T05:47:10.219Z,4252.00
2022-08-22T05:48:10.159Z,4264.00
2022-08-22T05:49:10.131Z,4684.00
2022-08-22T05:50:10.112Z,4852.00
2022-08-22T05:51:10.100Z,4464.00
2022-08-22T05:52:10.078Z,4504.00
2022-08-22T05:53:10.120Z,4692.00
2022-08-22T05:54:10.110Z,5032.00
2022-08-22T05:55:10.080Z,5768.00
2022-08-22T05:56:10.080Z,6276.00
2022-08-22T05:57:10.040Z,6396.00
2022-08-22T05:58:10.016Z,6520.00
2022-08-22T05:59:10.026Z,6568.00
2022-08-22T06:00:10.024Z,6584.00
2022-08-22T06:01:10.022Z,6496.00
2022-08-22T06:02:10.096Z,6580.00
2022-08-22T06:03:10.020Z,6508.00
2022-08-22T06:04:10.022Z,6584.00
2022-08-22T06:05:12.002Z,6692.00
2022-08-22T06:06:09.940Z,6824.00
2022-08-22T06:07:09.941Z,6636.00
2022-08-22T06:08:09.909Z,6300.00
2022-08-22T06:09:09.964Z,7032.00
2022-08-22T06:10:09.937Z,7092.00
2022-08-22T06:11:09.902Z,7236.00
2022-08-22T06:12:12.650Z,7140.00
2022-08-22T06:13:11.693Z,7196.00
2022-08-22T06:14:09.922Z,7352.00
2022-08-22T06:15:11.624Z,6640.00
2022-08-22T06:16:09.879Z,7476.00
2022-08-22T06:17:09.861Z,7588.00
2022-08-22T06:18:09.840Z,7856.00
2022-08-22T06:19:19.388Z,8136.00
2022-08-22T06:20:10.847Z,8392.00
2022-08-22T06:21:09.812Z,8628.00
2022-08-22T06:22:09.850Z,8940.00
2022-08-22T06:23:09.762Z,9192.00
2022-08-22T06:24:09.801Z,9504.00
2022-08-22T06:25:09.749Z,9784.00
2022-08-22T06:26:20.570Z,10100.00
2022-08-22T06:27:10.731Z,10300.00
2022-08-22T06:28:09.705Z,10456.00
2022-08-22T06:29:09.702Z,10628.00
2022-08-22T06:30:09.732Z,10848.00
2022-08-22T06:31:09.716Z,10944.00
2022-08-22T06:32:09.714Z,11112.00
2022-08-22T06:33:12.380Z,11420.00
2022-08-22T06:34:09.663Z,11624.00
2022-08-22T06:35:09.715Z,11816.00
2022-08-22T06:36:09.682Z,12112.00
2022-08-22T06:37:09.659Z,12304.00
2022-08-22T06:38:09.660Z,12360.00
2022-08-22T06:39:09.644Z,12472.00
2022-08-22T06:40:09.754Z,12436.00
2022-08-22T06:41:09.674Z,12564.00
2022-08-22T06:42:12.211Z,12720.00
2022-08-22T06:43:10.555Z,12624.00
2022-08-22T06:44:09.543Z,11824.00
2022-08-22T06:45:09.621Z,11716.00
2022-08-22T06:46:09.534Z,10964.00
2022-08-22T06:47:09.600Z,12580.00
2022-08-22T06:48:09.545Z,12640.00
2022-08-22T06:49:09.612Z,12216.00
2022-08-22T06:50:13.737Z,11408.00
2022-08-22T06:51:09.486Z,11492.00
2022-08-22T06:52:09.473Z,10376.00
2022-08-22T06:53:09.505Z,10100.00
2022-08-22T06:54:09.445Z,10580.00
2022-08-22T06:55:09.516Z,10012.00
2022-08-22T06:56:09.486Z,12480.00
2022-08-22T06:57:09.446Z,11072.00
2022-08-22T06:58:09.394Z,10012.00
2022-08-22T06:59:09.373Z,9672.00
2022-08-22T07:00:09.415Z,9856.00
2022-08-22T07:01:11.777Z,9948.00
2022-08-22T07:02:09.492Z,11912.00
2022-08-22T07:03:09.365Z,10424.00
2022-08-22T07:04:09.336Z,10560.00
2022-08-22T07:05:09.349Z,11000.00
2022-08-22T07:06:09.365Z,11296.00
2022-08-22T07:07:09.324Z,12400.00
2022-08-22T07:08:09.349Z,10180.00
2022-08-22T07:09:09.307Z,9536.00
2022-08-22T07:10:09.316Z,9352.00
2022-08-22T07:11:09.276Z,9332.00
2022-08-22T07:12:09.265Z,9404.00
2022-08-22T07:13:09.266Z,9032.00
2022-08-22T07:14:09.227Z,8656.00
2022-08-22T07:15:09.350Z,8312.00
2022-08-22T07:16:09.216Z,8128.00
2022-08-22T07:17:09.216Z,8024.00
2022-08-22T07:18:09.180Z,7616.00
2022-08-22T07:19:09.231Z,7692.00
2022-08-22T07:20:09.163Z,7864.00
2022-08-22T07:21:09.312Z,10184.00
2022-08-22T07:22:09.145Z,7504.00
2022-08-22T07:23:09.156Z,7644.00
2022-08-22T07:24:09.127Z,8152.00
2022-08-22T07:25:09.118Z,8052.00
2022-08-22T07:26:09.157Z,7964.00
2022-08-22T07:27:09.097Z,9312.00
2022-08-22T07:28:09.077Z,8908.00
2022-08-22T07:29:11.479Z,8300.00
2022-08-22T07:30:10.141Z,8088.00
2022-08-22T07:31:09.098Z,8212.00
2022-08-22T07:32:09.058Z,7992.00
2022-08-22T07:33:26.584Z,7884.00
2022-08-22T07:34:10.029Z,7840.00
2022-08-22T07:35:09.018Z,7844.00
2022-08-22T07:36:09.018Z,7896.00
2022-08-22T07:37:08.999Z,8004.00
2022-08-22T07:38:09.048Z,8204.00
2022-08-22T07:39:11.201Z,8444.00
2022-08-22T07:40:09.108Z,8756.00
2022-08-22T07:41:08.982Z,9020.00
2022-08-22T07:42:08.929Z,9264.00
2022-08-22T07:43:08.939Z,9532.00
2022-08-22T07:44:08.967Z,9796.00
2022-08-22T07:45:08.952Z,10072.00
2022-08-22T07:46:08.979Z,10380.00
2022-08-22T07:47:08.889Z,10712.00
2022-08-22T07:48:08.882Z,11092.00
2022-08-22T07:49:10.016Z,11500.00
2022-08-22T07:50:08.849Z,11920.00
2022-08-22T07:51:08.830Z,12444.00
2022-08-22T07:52:08.839Z,13068.00
2022-08-22T07:53:08.800Z,13460.00
2022-08-22T07:54:08.770Z,13860.00
2022-08-22T07:55:08.775Z,14744.00
2022-08-22T07:56:08.760Z,14728.00
2022-08-22T07:57:08.810Z,16512.00
2022-08-22T07:58:08.793Z,18624.00
2022-08-22T07:59:12.812Z,15024.00
2022-08-22T08:00:08.748Z,16832.00
2022-08-22T08:01:08.788Z,15520.00
2022-08-22T08:02:08.820Z,14340.00
2022-08-22T08:03:08.768Z,13264.00
2022-08-22T08:04:08.801Z,15280.00
2022-08-22T08:05:08.701Z,13844.00
2022-08-22T08:06:08.717Z,12836.00
2022-08-22T08:07:08.691Z,12644.00
2022-08-22T08:08:08.679Z,12848.00
2022-08-22T08:09:09.717Z,13008.00
2022-08-22T08:10:12.801Z,13168.00
2022-08-22T08:11:08.639Z,13344.00
2022-08-22T08:12:08.654Z,13576.00
2022-08-22T08:13:08.627Z,13816.00
2022-08-22T08:14:08.612Z,14052.00
2022-08-22T08:15:09.582Z,14016.00
2022-08-22T08:16:08.668Z,13728.00
2022-08-22T08:17:08.543Z,13516.00
2022-08-22T08:18:08.533Z,13436.00
2022-08-22T08:19:08.513Z,13440.00
2022-08-22T08:20:08.514Z,13604.00
2022-08-22T08:21:08.574Z,13932.00
2022-08-22T08:22:08.511Z,14280.00
2022-08-22T08:23:08.531Z,14800.00
2022-08-22T08:24:08.624Z,15468.00
2022-08-22T08:25:08.473Z,16480.00
2022-08-22T08:26:08.484Z,18432.00
2022-08-22T08:27:08.444Z,21600.00
2022-08-22T08:28:08.454Z,21728.00
2022-08-22T08:29:08.446Z,21440.00
2022-08-22T08:30:11.133Z,19392.00
2022-08-22T08:31:09.430Z,17120.00
2022-08-22T08:32:08.383Z,17728.00
2022-08-22T08:33:24.659Z,22784.00
2022-08-22T08:34:09.356Z,23072.00
2022-08-22T08:35:08.346Z,17792.00
2022-08-22T08:36:08.340Z,23424.00
2022-08-22T08:37:08.334Z,15940.00
2022-08-22T08:38:08.315Z,15748.00
2022-08-22T08:39:08.296Z,21952.00
2022-08-22T08:40:08.357Z,17536.00
2022-08-22T08:41:08.305Z,17024.00
2022-08-22T08:42:08.316Z,24000.00
2022-08-22T08:43:10.732Z,23328.00
2022-08-22T08:44:08.276Z,23136.00
2022-08-22T08:45:08.260Z,23104.00
2022-08-22T08:46:08.280Z,23296.00
2022-08-22T08:47:08.236Z,24640.00
2022-08-22T08:48:08.249Z,22112.00
2022-08-22T08:49:08.226Z,25088.00
2022-08-22T08:50:08.237Z,24288.00
2022-08-22T08:51:08.212Z,23776.00
2022-08-22T08:52:08.197Z,24704.00
2022-08-22T08:53:08.173Z,23392.00
2022-08-22T08:54:08.179Z,19744.00
2022-08-22T08:55:10.505Z,18496.00
2022-08-22T08:56:10.824Z,16576.00
2022-08-22T08:57:08.171Z,21280.00
2022-08-22T08:58:10.232Z,22112.00
2022-08-22T08:59:10.188Z,22656.00
2022-08-22T09:00:08.120Z,23296.00
2022-08-22T09:01:08.130Z,23296.00
2022-08-22T09:02:08.129Z,22336.00
2022-08-22T09:03:09.075Z,18080.00
2022-08-22T09:04:15.188Z,23392.00
2022-08-22T09:05:09.046Z,22848.00
2022-08-22T09:06:08.090Z,21568.00
2022-08-22T09:07:08.042Z,19680.00
2022-08-22T09:08:11.876Z,23648.00
2022-08-22T09:09:08.064Z,23776.00
2022-08-22T09:10:08.005Z,22592.00
2022-08-22T09:11:09.789Z,16512.00
2022-08-22T09:12:08.021Z,15016.00
2022-08-22T09:13:11.759Z,15436.00
2022-08-22T09:14:08.026Z,15420.00
2022-08-22T09:15:14.166Z,15184.00
2022-08-22T09:16:10.054Z,15296.00
2022-08-22T09:17:07.920Z,14864.00
2022-08-22T09:18:07.931Z,15124.00
2022-08-22T09:19:07.891Z,15048.00
2022-08-22T09:20:17.665Z,15548.00
2022-08-22T09:21:08.871Z,15328.00
2022-08-22T09:22:14.302Z,15020.00
2022-08-22T09:23:10.893Z,15808.00
2022-08-22T09:24:07.862Z,16036.00
2022-08-22T09:25:07.853Z,16024.00
2022-08-22T09:26:07.833Z,15404.00
2022-08-22T09:27:08.617Z,14864.00
2022-08-22T09:28:07.892Z,14216.00
2022-08-22T09:29:07.794Z,13800.00
2022-08-22T09:30:07.804Z,13704.00
2022-08-22T09:31:16.805Z,13856.00
2022-08-22T09:32:13.049Z,13956.00
2022-08-22T09:33:07.749Z,13916.00
2022-08-22T09:34:07.764Z,13912.00
2022-08-22T09:35:07.744Z,13976.00
2022-08-22T09:36:12.334Z,14288.00
2022-08-22T09:37:07.815Z,14328.00
2022-08-22T09:38:07.685Z,14216.00
2022-08-22T09:39:07.695Z,14668.00
2022-08-22T09:40:08.206Z,14376.00
2022-08-22T09:41:07.684Z,14676.00
2022-08-22T09:42:08.094Z,15324.00
2022-08-22T09:43:07.656Z,16204.00
2022-08-22T09:44:07.657Z,18080.00
2022-08-22T09:45:07.617Z,16480.00
2022-08-22T09:46:07.607Z,15956.00
2022-08-22T09:47:07.612Z,15424.00
2022-08-22T09:48:07.902Z,15396.00
2022-08-22T09:49:07.646Z,14140.00
2022-08-22T09:50:07.577Z,13144.00
2022-08-22T09:51:28.584Z,12500.00
2022-08-22T09:52:15.717Z,12024.00
2022-08-22T09:53:08.547Z,11804.00
2022-08-22T09:54:08.532Z,11724.00
2022-08-22T09:55:07.971Z,11628.00
2022-08-22T09:56:11.571Z,11796.00
2022-08-22T09:57:08.507Z,11844.00
2022-08-22T09:58:11.252Z,12420.00
2022-08-22T09:59:09.796Z,11744.00
2022-08-22T10:00:07.549Z,11240.00
2022-08-22T10:01:07.519Z,11232.00
2022-08-22T10:02:15.301Z,11784.00
2022-08-22T10:03:08.490Z,12532.00
2022-08-22T10:04:07.426Z,14024.00
2022-08-22T10:05:07.416Z,17312.00
2022-08-22T10:06:07.389Z,17280.00
2022-08-22T10:07:11.710Z,15504.00
2022-08-22T10:08:07.390Z,23680.00
2022-08-22T10:09:08.884Z,20544.00
2022-08-22T10:10:07.370Z,23520.00
2022-08-22T10:11:07.341Z,23296.00
2022-08-22T10:12:12.780Z,23008.00
2022-08-22T10:13:10.444Z,22848.00
2022-08-22T10:14:07.365Z,22624.00
2022-08-22T10:15:07.357Z,22240.00
2022-08-22T10:16:07.312Z,21920.00
2022-08-22T10:17:07.389Z,21600.00
2022-08-22T10:18:07.302Z,21376.00
2022-08-22T10:19:07.272Z,21120.00
2022-08-22T10:20:07.273Z,20576.00
2022-08-22T10:21:07.242Z,20288.00
2022-08-22T10:22:07.204Z,19936.00
2022-08-22T10:23:07.229Z,19680.00
2022-08-22T10:24:07.356Z,19328.00
2022-08-22T10:25:07.163Z,19104.00
2022-08-22T10:26:07.183Z,18912.00
2022-08-22T10:27:07.168Z,18880.00
2022-08-22T10:28:07.166Z,18688.00
2022-08-22T10:29:07.133Z,18656.00
2022-08-22T10:30:07.126Z,18496.00
2022-08-22T10:31:07.116Z,18496.00
2022-08-22T10:32:10.724Z,18528.00
2022-08-22T10:33:08.123Z,18592.00
2022-08-22T10:34:07.074Z,18592.00
2022-08-22T10:35:07.083Z,18656.00
2022-08-22T10:36:07.117Z,18624.00
2022-08-22T10:37:07.191Z,18720.00
2022-08-22T10:38:07.104Z,18624.00
2022-08-22T10:39:10.926Z,18720.00
2022-08-22T10:40:07.138Z,18560.00
2022-08-22T10:41:09.235Z,18784.00
2022-08-22T10:42:07.017Z,18688.00
2022-08-22T10:43:07.008Z,18976.00
2022-08-22T10:44:06.976Z,18912.00
2022-08-22T10:45:06.985Z,18976.00
2022-08-22T10:46:06.980Z,19104.00
2022-08-22T10:47:08.886Z,19072.00
2022-08-22T10:48:09.012Z,19072.00
2022-08-22T10:49:07.958Z,19168.00
2022-08-22T10:50:10.951Z,19136.00
2022-08-22T10:51:08.780Z,19072.00
2022-08-22T10:52:15.689Z,19008.00
2022-08-22T10:53:07.991Z,19008.00
2022-08-22T10:54:06.919Z,18944.00
2022-08-22T10:55:09.978Z,18976.00
2022-08-22T10:56:06.939Z,18976.00
2022-08-22T10:57:07.493Z,17824.00
2022-08-22T10:58:06.898Z,19296.00
2022-08-22T10:59:06.870Z,19232.00
2022-08-22T11:00:06.819Z,18304.00
2022-08-22T11:01:38.155Z,18432.00
2022-08-22T11:02:08.187Z,19328.00
2022-08-22T11:03:10.698Z,19168.00
2022-08-22T11:04:06.792Z,19136.00
2022-08-22T11:05:06.774Z,19072.00
2022-08-22T11:06:06.768Z,19104.00
2022-08-22T11:07:07.698Z,19168.00
2022-08-22T11:08:06.780Z,19008.00
2022-08-22T11:09:06.820Z,19072.00
2022-08-22T11:10:06.762Z,19008.00
2022-08-22T11:11:06.744Z,18944.00
2022-08-22T11:12:06.701Z,19168.00
2022-08-22T11:13:06.734Z,19008.00
2022-08-22T11:14:06.704Z,19008.00
2022-08-22T11:15:06.678Z,19072.00
2022-08-22T11:16:06.653Z,19008.00
2022-08-22T11:17:20.483Z,19072.00
2022-08-22T11:18:07.712Z,19072.00
2022-08-22T11:19:14.934Z,19040.00
2022-08-22T11:20:07.653Z,19072.00
2022-08-22T11:21:07.330Z,19008.00
2022-08-22T11:22:06.594Z,19104.00
2022-08-22T11:23:06.603Z,19104.00
2022-08-22T11:24:06.602Z,18912.00
2022-08-22T11:25:07.594Z,19136.00
2022-08-22T11:26:06.624Z,19232.00
2022-08-22T11:27:07.193Z,19328.00
2022-08-22T11:28:06.603Z,19392.00
2022-08-22T11:29:13.392Z,19360.00
2022-08-22T11:30:07.593Z,19232.00
2022-08-22T11:31:07.154Z,19328.00
2022-08-22T11:32:07.886Z,19680.00
2022-08-22T11:33:06.534Z,14924.00
2022-08-22T11:34:06.505Z,18752.00
2022-08-22T11:35:09.056Z,15020.00
2022-08-22T11:36:06.505Z,11612.00
2022-08-22T11:37:11.011Z,8048.00
2022-08-22T11:38:10.949Z,16060.00
2022-08-22T11:39:06.555Z,14840.00
2022-08-22T11:40:07.555Z,14860.00
2022-08-22T11:41:07.166Z,20448.00
2022-08-22T11:42:06.834Z,16404.00
2022-08-22T11:43:07.351Z,18400.00
2022-08-22T11:44:07.409Z,16028.00
2022-08-22T11:45:06.362Z,20512.00
2022-08-22T11:46:06.650Z,20800.00
2022-08-22T11:47:06.369Z,20768.00
2022-08-22T11:48:06.398Z,20704.00
2022-08-22T11:49:06.377Z,20800.00
2022-08-22T11:50:13.820Z,20800.00
2022-08-22T11:51:13.223Z,20864.00
2022-08-22T11:52:07.353Z,20864.00
2022-08-22T11:53:07.832Z,20928.00
2022-08-22T11:54:06.300Z,20960.00
2022-08-22T11:55:07.161Z,20960.00
2022-08-22T11:56:06.242Z,20928.00
2022-08-22T11:57:06.230Z,20896.00
2022-08-22T11:58:06.230Z,21024.00
2022-08-22T11:59:06.238Z,20960.00
2022-08-22T12:00:06.223Z,21376.00
2022-08-22T12:01:06.184Z,21536.00
2022-08-22T12:02:06.250Z,21664.00
2022-08-22T12:03:06.261Z,21888.00
2022-08-22T12:04:06.194Z,22112.00
2022-08-22T12:05:06.181Z,22144.00
2022-08-22T12:06:06.160Z,22144.00
2022-08-22T12:07:06.152Z,22432.00
2022-08-22T12:08:06.150Z,22304.00
2022-08-22T12:09:06.152Z,22400.00
2022-08-22T12:10:06.173Z,22464.00
2022-08-22T12:11:07.182Z,22752.00
2022-08-22T12:12:06.122Z,22976.00
2022-08-22T12:13:06.146Z,23360.00
2022-08-22T12:14:06.807Z,23648.00
2022-08-22T12:15:08.951Z,23872.00
2022-08-22T12:16:06.085Z,24288.00